Time;durP1;ratioP1;P1;durP2;ratioP2;P2;SDS_P1;SDS_P2;PMS_P1;PMS_P2;Temp;Humidity;BMP_temperature;BMP_pressure;BME280_temperature;BME280_humidity;BME280_pressure;Samples;Min_cycle;Max_cycle;Signal;HPM_P1;HPM_P2
2022/12/11 00:01:07;;;;;;;;;;;-0.20;99.90;;;;;;12396780;28;19934;-86
2022/12/11 00:07:08;;;;;;;;;;;-0.20;99.90;;;;;;12383855;28;19925;-86
2022/12/11 00:13:10;;;;;;;;;;;-0.20;99.90;;;;;;12409043;28;20394;-86
2022/12/11 00:19:12;;;;;;;;;;;-0.30;99.90;;;;;;12386098;28;19925;-86
2022/12/11 00:25:13;;;;;;;;;;;-0.20;99.90;;;;;;12388397;28;19933;-86
2022/12/11 00:31:16;;;;;;;;;;;-0.30;99.90;;;;;;12388736;28;19929;-86
2022/12/11 00:37:18;;;;;;;;;;;-0.30;99.90;;;;;;12388019;28;19926;-86
2022/12/11 00:43:20;;;;;;;;;;;-0.20;99.90;;;;;;12400028;28;20016;-86
2022/12/11 00:49:21;;;;;;;;;;;-0.20;99.90;;;;;;12403124;28;19925;-86
2022/12/11 00:55:24;;;;;;;;;;;-0.20;99.90;;;;;;12384851;28;19933;-86
2022/12/11 01:01:26;;;;;;;;;;;-0.20;99.90;;;;;;12369624;28;19934;-85
2022/12/11 01:07:27;;;;;;;;;;;-0.20;99.90;;;;;;12398789;28;19926;-85
2022/12/11 01:13:29;;;;;;;;;;;-0.20;99.90;;;;;;12377090;28;19936;-86
2022/12/11 01:19:32;;;;;;;;;;;-0.30;99.90;;;;;;12380785;28;19933;-85
2022/12/11 01:25:36;;;;;;;;;;;-0.30;99.90;;;;;;12376485;28;20362;-86
2022/12/11 01:31:38;;;;;;;;;;;-0.30;99.90;;;;;;12380727;28;19979;-86
2022/12/11 01:37:40;;;;;;;;;;;-0.30;99.90;;;;;;12383428;28;19925;-86
2022/12/11 01:43:55;;;;;;;;;;;-0.30;99.90;;;;;;12376525;28;19932;-86
2022/12/11 01:49:57;;;;;;;;;;;-0.30;99.90;;;;;;12398797;28;19929;-86
2022/12/11 01:55:59;;;;;;;;;;;-0.40;99.90;;;;;;12379403;28;19933;-86
2022/12/11 02:02:10;;;;;;;;;;;-0.40;99.90;;;;;;12383552;28;19926;-86
2022/12/11 02:08:12;;;;;;;;;;;-0.40;99.90;;;;;;12399960;28;19930;-86
2022/12/11 02:14:46;;;;;;;;;;;-0.30;99.90;;;;;;12389193;28;20683;-85
2022/12/11 02:20:51;;;;;;;;;;;-0.30;99.90;;;;;;12326528;28;19926;-86
2022/12/11 02:27:02;;;;;;;;;;;-0.30;99.90;;;;;;12382329;28;19926;-85
2022/12/11 02:33:04;;;;;;;;;;;-0.40;99.90;;;;;;12402752;28;19937;-86
2022/12/11 02:39:08;;;;;;;;;;;-0.30;99.90;;;;;;12387514;28;19952;-86
2022/12/11 02:45:10;;;;;;;;;;;-0.30;99.90;;;;;;12394132;28;19932;-85
2022/12/11 02:51:15;;;;;;;;;;;-0.30;99.90;;;;;;12382488;28;20382;-86
2022/12/11 02:57:26;;;;;;;;;;;-0.30;99.90;;;;;;12387269;28;19926;-85
2022/12/11 03:03:28;;;;;;;;;;;-0.20;99.90;;;;;;12367186;28;19930;-86
2022/12/11 03:09:30;;;;;;;;;;;-0.10;99.90;;;;;;12391462;28;19941;-86
2022/12/11 03:15:36;;;;;;;;;;;-0.20;99.90;;;;;;12376793;28;19934;-86
2022/12/11 03:21:44;;;;;;;;;;;-0.20;99.90;;;;;;12385728;28;19926;-86
2022/12/11 03:28:18;;;;;;;;;;;-0.20;99.90;;;;;;12378673;28;19929;-86
2022/12/11 03:34:28;;;;;;;;;;;-0.20;99.90;;;;;;12345002;28;19960;-86
2022/12/11 03:40:31;;;;;;;;;;;-0.20;99.90;;;;;;12395019;28;19930;-86
2022/12/11 03:46:35;;;;;;;;;;;-0.10;99.90;;;;;;12389155;28;19933;-86
2022/12/11 03:52:38;;;;;;;;;;;-0.20;99.90;;;;;;12400126;28;20302;-86
2022/12/11 03:58:46;;;;;;;;;;;-0.20;99.90;;;;;;12386916;28;19929;-86
2022/12/11 04:04:48;;;;;;;;;;;-0.20;99.90;;;;;;12390077;28;19925;-86
2022/12/11 04:11:33;;;;;;;;;;;-0.20;99.90;;;;;;12398120;28;20294;-86
2022/12/11 04:24:13;;;;;;;;;;;-0.30;99.90;;;;;;12397348;28;19944;-85
2022/12/11 04:29:56;;;;;;;;;;;-0.30;99.90;;;;;;12405684;28;19930;-86
2022/12/11 04:35:59;;;;;;;;;;;-0.30;99.90;;;;;;12378319;28;19925;-86
2022/12/11 04:42:00;;;;;;;;;;;-0.30;99.90;;;;;;12388110;28;19941;-85
2022/12/11 04:48:02;;;;;;;;;;;-0.30;99.90;;;;;;12388168;28;19930;-85
2022/12/11 04:54:04;;;;;;;;;;;-0.30;99.90;;;;;;12378669;28;19936;-85
2022/12/11 05:00:07;;;;;;;;;;;-0.30;99.90;;;;;;12391091;28;19930;-85
2022/12/11 05:06:09;;;;;;;;;;;-0.30;99.90;;;;;;12379521;28;20021;-85
2022/12/11 05:12:11;;;;;;;;;;;-0.30;99.90;;;;;;12376686;28;19926;-86
2022/12/11 05:18:13;;;;;;;;;;;-0.40;99.90;;;;;;12366379;28;19933;-86
2022/12/11 05:24:15;;;;;;;;;;;-0.40;99.90;;;;;;12386490;28;19926;-86
2022/12/11 05:30:16;;;;;;;;;;;-0.40;99.90;;;;;;12379373;28;19937;-85
2022/12/11 05:36:26;;;;;;;;;;;-0.30;99.90;;;;;;12404450;28;19932;-85
2022/12/11 05:42:28;;;;;;;;;;;-0.30;99.90;;;;;;12388222;28;19930;-86
2022/12/11 05:48:29;;;;;;;;;;;-0.40;99.90;;;;;;12368358;28;20408;-86
2022/12/11 05:54:31;;;;;;;;;;;-0.30;99.90;;;;;;12371184;28;19926;-86
2022/12/11 06:00:33;;;;;;;;;;;-0.40;99.90;;;;;;12402312;28;20019;-86
2022/12/11 06:06:37;;;;;;;;;;;-0.30;99.90;;;;;;12390100;28;19973;-86
2022/12/11 06:12:39;;;;;;;;;;;-0.30;99.90;;;;;;12389053;28;19960;-86
2022/12/11 06:18:42;;;;;;;;;;;-0.40;99.90;;;;;;12373435;28;19933;-85
2022/12/11 06:24:44;;;;;;;;;;;-0.30;99.90;;;;;;12378072;28;19926;-86
2022/12/11 06:30:45;;;;;;;;;;;-0.30;99.90;;;;;;12403100;28;19933;-86
2022/12/11 06:36:47;;;;;;;;;;;-0.40;99.90;;;;;;12398813;28;19936;-85
2022/12/11 06:42:49;;;;;;;;;;;-0.40;99.90;;;;;;12408077;28;19940;-86
2022/12/11 06:48:50;;;;;;;;;;;-0.30;99.90;;;;;;12383549;28;19933;-85
2022/12/11 06:54:52;;;;;;;;;;;-0.30;99.90;;;;;;12392174;28;20405;-86
2022/12/11 07:00:54;;;;;;;;;;;-0.30;99.90;;;;;;12375611;28;19925;-86
2022/12/11 07:06:56;;;;;;;;;;;-0.20;99.90;;;;;;12406088;28;19929;-85
2022/12/11 07:12:57;;;;;;;;;;;-0.20;99.90;;;;;;12388989;28;19929;-86
2022/12/11 07:18:59;;;;;;;;;;;-0.20;99.90;;;;;;12378523;28;19934;-85
2022/12/11 07:25:01;;;;;;;;;;;-0.20;99.90;;;;;;12374049;28;19925;-86
2022/12/11 07:31:06;;;;;;;;;;;-0.10;99.90;;;;;;12377374;28;20401;-87
2022/12/11 07:37:08;;;;;;;;;;;-0.10;99.90;;;;;;12379604;28;19934;-87
2022/12/11 07:43:09;;;;;;;;;;;-0.20;99.90;;;;;;12376625;28;19926;-87
2022/12/11 07:49:11;;;;;;;;;;;-0.20;99.90;;;;;;12381407;28;19929;-87
2022/12/11 07:55:13;;;;;;;;;;;-0.10;99.90;;;;;;12409375;28;19930;-87
2022/12/11 08:01:16;;;;;;;;;;;-0.10;99.90;;;;;;12397274;28;19937;-87
2022/12/11 08:07:18;;;;;;;;;;;-0.20;99.90;;;;;;12381101;28;19937;-87
2022/12/11 08:13:20;;;;;;;;;;;-0.10;99.90;;;;;;12395834;28;19936;-87
2022/12/11 08:19:21;;;;;;;;;;;-0.10;99.90;;;;;;12400164;28;19925;-87
2022/12/11 08:25:23;;;;;;;;;;;-0.10;99.90;;;;;;12379951;28;19926;-87
2022/12/11 08:31:25;;;;;;;;;;;-0.10;99.90;;;;;;12398200;28;19937;-87
2022/12/11 08:37:28;;;;;;;;;;;-0.10;99.90;;;;;;12389161;28;19933;-87
2022/12/11 08:43:32;;;;;;;;;;;-0.10;99.90;;;;;;12387030;28;19941;-87
2022/12/11 08:49:33;;;;;;;;;;;0.00;99.90;;;;;;12382246;28;19925;-87
2022/12/11 08:55:35;;;;;;;;;;;0.10;99.90;;;;;;12369450;28;19948;-87
2022/12/11 09:01:36;;;;;;;;;;;0.00;99.90;;;;;;12377905;28;19926;-87
2022/12/11 09:07:38;;;;;;;;;;;0.00;99.90;;;;;;12400405;28;19930;-87
2022/12/11 09:13:41;;;;;;;;;;;0.00;99.90;;;;;;12404540;28;19933;-87
2022/12/11 09:19:42;;;;;;;;;;;0.10;99.90;;;;;;12391065;28;19925;-87
2022/12/11 09:25:44;;;;;;;;;;;0.10;99.90;;;;;;12391147;28;20289;-87
2022/12/11 09:31:47;;;;;;;;;;;0.10;99.90;;;;;;12376449;28;19925;-87
2022/12/11 09:37:49;;;;;;;;;;;0.20;99.90;;;;;;12382441;28;20298;-87
2022/12/11 09:44:09;;;;;;;;;;;0.20;99.90;;;;;;12401578;28;19926;-88
2022/12/11 09:50:24;;;;;;;;;;;0.20;99.90;;;;;;12437312;28;19930;-87
2022/12/11 09:56:39;;;;;;;;;;;0.20;99.90;;;;;;12438003;28;20002;-87
2022/12/11 10:02:53;;;;;;;;;;;0.20;99.90;;;;;;12450638;28;19957;-87
2022/12/11 10:08:59;;;;;;;;;;;0.30;99.90;;;;;;12414731;28;19949;-87
2022/12/11 10:15:13;;;;;;;;;;;0.40;99.90;;;;;;12432382;28;19938;-87
2022/12/11 10:21:16;;;;;;;;;;;0.20;99.90;;;;;;12429255;28;19948;-88
2022/12/11 10:27:22;;;;;;;;;;;0.30;99.90;;;;;;12418935;28;19926;-87
2022/12/11 10:33:28;;;;;;;;;;;0.40;99.90;;;;;;12399874;28;19940;-87
2022/12/11 10:39:29;;;;;;;;;;;0.40;99.90;;;;;;12386896;28;19941;-87
2022/12/11 10:45:31;;;;;;;;;;;0.30;99.90;;;;;;12386859;28;19926;-87
2022/12/11 10:51:34;;;;;;;;;;;0.40;99.90;;;;;;12403189;28;19925;-87
2022/12/11 10:57:37;;;;;;;;;;;0.60;99.90;;;;;;12401449;28;19936;-87
2022/12/11 11:04:01;;;;;;;;;;;0.60;99.90;;;;;;12408378;28;19929;-87
2022/12/11 11:10:09;;;;;;;;;;;0.60;99.90;;;;;;12369076;28;19926;-87
2022/12/11 11:16:12;;;;;;;;;;;0.50;99.90;;;;;;12373716;28;19933;-87
2022/12/11 11:22:16;;;;;;;;;;;0.60;99.90;;;;;;12392336;28;19968;-87
2022/12/11 11:28:20;;;;;;;;;;;0.50;99.90;;;;;;12377645;28;19930;-87
2022/12/11 11:34:21;;;;;;;;;;;0.40;99.90;;;;;;12362404;28;19925;-87
2022/12/11 11:40:29;;;;;;;;;;;0.50;99.90;;;;;;12375435;28;19930;-87
2022/12/11 11:46:33;;;;;;;;;;;0.50;99.90;;;;;;12360977;28;19976;-87
2022/12/11 11:52:39;;;;;;;;;;;0.50;99.90;;;;;;12375230;28;19934;-87
2022/12/11 11:59:01;;;;;;;;;;;0.50;99.90;;;;;;12362767;28;19970;-86
2022/12/11 12:05:03;;;;;;;;;;;0.50;99.90;;;;;;12393647;28;19971;-87
2022/12/11 12:11:33;;;;;;;;;;;0.40;99.90;;;;;;12386416;28;20263;-87
2022/12/11 12:17:51;;;;;;;;;;;0.50;99.90;;;;;;12374659;28;19933;-87
2022/12/11 12:23:56;;;;;;;;;;;0.40;99.90;;;;;;12362906;28;19926;-87
2022/12/11 12:30:07;;;;;;;;;;;0.50;99.90;;;;;;12368944;28;19948;-87
2022/12/11 12:36:27;;;;;;;;;;;0.50;99.90;;;;;;12370494;28;19937;-87
2022/12/11 12:42:37;;;;;;;;;;;0.50;99.90;;;;;;12369388;28;19930;-87
2022/12/11 12:48:39;;;;;;;;;;;0.50;99.90;;;;;;12391752;28;19936;-87
2022/12/11 12:55:12;;;;;;;;;;;0.50;99.90;;;;;;12378366;28;19932;-87
2022/12/11 13:01:15;;;;;;;;;;;0.40;99.90;;;;;;12377786;28;19930;-87
2022/12/11 13:07:25;;;;;;;;;;;0.30;99.90;;;;;;12369101;28;20224;-87
2022/12/11 13:13:32;;;;;;;;;;;0.40;99.90;;;;;;12382916;28;19932;-87
2022/12/11 13:19:34;;;;;;;;;;;0.40;99.90;;;;;;12366440;28;20326;-87
2022/12/11 13:25:46;;;;;;;;;;;0.40;99.90;;;;;;12377190;28;19971;-87
2022/12/11 13:31:55;;;;;;;;;;;0.40;99.90;;;;;;12375366;28;19930;-87
2022/12/11 13:38:12;;;;;;;;;;;0.30;99.90;;;;;;12378191;28;19933;-87
2022/12/11 13:44:17;;;;;;;;;;;0.30;99.90;;;;;;12398171;28;19932;-87
2022/12/11 13:50:29;;;;;;;;;;;0.30;99.90;;;;;;12381582;28;19926;-87
2022/12/11 13:56:31;;;;;;;;;;;0.20;99.90;;;;;;12385993;28;20285;-87
2022/12/11 14:02:37;;;;;;;;;;;0.10;99.90;;;;;;12373105;28;19929;-87
2022/12/11 14:08:41;;;;;;;;;;;0.20;99.90;;;;;;12371841;28;19934;-87
2022/12/11 14:14:45;;;;;;;;;;;0.20;99.90;;;;;;12376235;28;19933;-87
2022/12/11 14:20:52;;;;;;;;;;;0.10;99.90;;;;;;12372802;28;19930;-88
2022/12/11 14:26:54;;;;;;;;;;;0.10;99.90;;;;;;12389155;28;19926;-87
2022/12/11 14:32:57;;;;;;;;;;;0.10;99.90;;;;;;12366332;28;19976;-87
2022/12/11 14:39:01;;;;;;;;;;;0.00;99.90;;;;;;12386978;28;19933;-87
2022/12/11 14:45:11;;;;;;;;;;;0.10;99.90;;;;;;12373992;28;20072;-87
2022/12/11 14:51:14;;;;;;;;;;;0.00;99.90;;;;;;12386292;28;19933;-87
2022/12/11 14:57:18;;;;;;;;;;;-0.10;99.90;;;;;;12388571;28;19926;-87
2022/12/11 15:03:22;;;;;;;;;;;-0.10;99.90;;;;;;12364527;28;19930;-87
2022/12/11 15:09:32;;;;;;;;;;;-0.10;99.90;;;;;;12393920;28;19930;-87
2022/12/11 15:15:45;;;;;;;;;;;-0.10;99.90;;;;;;12378188;28;19941;-87
2022/12/11 15:21:46;;;;;;;;;;;-0.10;99.90;;;;;;12355596;28;19934;-87
2022/12/11 15:27:52;;;;;;;;;;;-0.20;99.90;;;;;;12374056;28;20008;-87
2022/12/11 15:33:54;;;;;;;;;;;-0.20;99.90;;;;;;12373990;28;20016;-87
2022/12/11 15:39:57;;;;;;;;;;;-0.20;99.90;;;;;;12379070;28;20073;-87
2022/12/11 15:46:00;;;;;;;;;;;-0.20;99.90;;;;;;12383534;28;19926;-87
2022/12/11 15:52:02;;;;;;;;;;;-0.20;99.90;;;;;;12373179;28;19991;-87
2022/12/11 15:58:05;;;;;;;;;;;-0.20;99.90;;;;;;12386873;28;19938;-87
2022/12/11 16:04:07;;;;;;;;;;;-0.30;99.90;;;;;;12398378;28;19926;-87
2022/12/11 16:10:13;;;;;;;;;;;-0.30;99.90;;;;;;12372580;28;19991;-87
2022/12/11 16:16:14;;;;;;;;;;;-0.30;99.90;;;;;;12408350;28;19933;-87
2022/12/11 16:22:16;;;;;;;;;;;-0.20;99.90;;;;;;12393846;28;20384;-87
2022/12/11 16:28:20;;;;;;;;;;;-0.20;99.90;;;;;;12368493;28;20383;-87
2022/12/11 16:34:25;;;;;;;;;;;-0.20;99.90;;;;;;12394800;28;19929;-87
2022/12/11 16:40:26;;;;;;;;;;;-0.20;99.90;;;;;;12379814;28;19925;-87
2022/12/11 16:46:28;;;;;;;;;;;-0.30;99.90;;;;;;12382077;28;20290;-87
2022/12/11 16:52:30;;;;;;;;;;;-0.30;99.90;;;;;;12405840;28;20344;-87
2022/12/11 16:58:32;;;;;;;;;;;-0.20;99.90;;;;;;12384095;28;19950;-87
2022/12/11 17:04:34;;;;;;;;;;;-0.30;99.90;;;;;;12391293;28;19925;-86
2022/12/11 17:10:39;;;;;;;;;;;-0.30;99.90;;;;;;12395762;28;19934;-87
2022/12/11 17:16:41;;;;;;;;;;;-0.30;99.90;;;;;;12394199;28;19933;-87
2022/12/11 17:22:44;;;;;;;;;;;-0.30;99.90;;;;;;12379489;28;19929;-87
2022/12/11 17:28:46;;;;;;;;;;;-0.30;99.90;;;;;;12380850;28;19925;-87
2022/12/11 17:34:49;;;;;;;;;;;-0.20;99.90;;;;;;12382461;28;19926;-87
2022/12/11 17:40:51;;;;;;;;;;;-0.20;99.90;;;;;;12380550;28;20279;-87
2022/12/11 17:46:52;;;;;;;;;;;-0.30;99.90;;;;;;12376646;28;19933;-87
2022/12/11 17:52:54;;;;;;;;;;;-0.30;99.90;;;;;;12393030;28;20378;-86
2022/12/11 17:58:56;;;;;;;;;;;-0.20;99.90;;;;;;12378940;28;19926;-87
2022/12/11 18:04:58;;;;;;;;;;;-0.30;99.90;;;;;;12388606;28;19933;-87
2022/12/11 18:11:10;;;;;;;;;;;-0.30;99.90;;;;;;12378218;28;19937;-87
2022/12/11 18:17:12;;;;;;;;;;;-0.30;99.90;;;;;;12399991;28;19925;-87
2022/12/11 18:23:14;;;;;;;;;;;-0.30;99.90;;;;;;12375813;28;20286;-87
2022/12/11 18:29:16;;;;;;;;;;;-0.20;99.90;;;;;;12361864;28;19933;-87
2022/12/11 18:35:18;;;;;;;;;;;-0.20;99.90;;;;;;12372246;28;19932;-87
2022/12/11 18:41:20;;;;;;;;;;;-0.30;99.90;;;;;;12369982;28;19934;-87
2022/12/11 18:47:21;;;;;;;;;;;-0.30;99.90;;;;;;12380124;28;19930;-86
2022/12/11 18:53:23;;;;;;;;;;;-0.30;99.90;;;;;;12371411;28;19925;-87
2022/12/11 18:59:25;;;;;;;;;;;-0.40;99.90;;;;;;12362884;28;19929;-86
2022/12/11 19:05:27;;;;;;;;;;;-0.30;99.90;;;;;;12388223;28;20293;-86
2022/12/11 19:11:30;;;;;;;;;;;-0.40;99.90;;;;;;12374627;28;19926;-87
2022/12/11 19:17:32;;;;;;;;;;;-0.30;99.90;;;;;;12374969;28;19933;-86
2022/12/11 19:23:34;;;;;;;;;;;-0.30;99.90;;;;;;12368717;28;20306;-87
2022/12/11 19:29:35;;;;;;;;;;;-0.40;99.90;;;;;;12390141;28;19926;-86
2022/12/11 19:35:37;;;;;;;;;;;-0.40;99.90;;;;;;12368840;28;19926;-86
2022/12/11 19:41:39;;;;;;;;;;;-0.40;99.90;;;;;;12385112;28;19930;-86
2022/12/11 19:47:41;;;;;;;;;;;-0.30;99.90;;;;;;12363074;28;20389;-87
2022/12/11 19:53:44;;;;;;;;;;;-0.30;99.90;;;;;;12383901;28;19925;-87
2022/12/11 19:59:46;;;;;;;;;;;-0.50;99.90;;;;;;12379858;28;19926;-87
2022/12/11 20:06:03;;;;;;;;;;;-0.50;99.90;;;;;;12361523;28;19933;-86
2022/12/11 20:12:09;;;;;;;;;;;-0.50;99.90;;;;;;12380223;28;19958;-86
2022/12/11 20:18:10;;;;;;;;;;;-0.50;99.90;;;;;;12374394;28;19941;-86
2022/12/11 20:24:19;;;;;;;;;;;-0.40;99.90;;;;;;12391783;28;20378;-86
2022/12/11 20:30:24;;;;;;;;;;;-0.40;99.90;;;;;;12374164;28;19940;-86
2022/12/11 20:36:26;;;;;;;;;;;-0.50;99.90;;;;;;12382479;28;20374;-86
2022/12/11 20:42:28;;;;;;;;;;;-0.50;99.90;;;;;;12395654;28;19933;-87
2022/12/11 20:48:29;;;;;;;;;;;-0.50;99.90;;;;;;12375398;28;19930;-86
2022/12/11 20:54:31;;;;;;;;;;;-0.60;99.90;;;;;;12382582;28;19941;-86
2022/12/11 21:00:34;;;;;;;;;;;-0.60;99.90;;;;;;12370916;28;19933;-86
2022/12/11 21:06:37;;;;;;;;;;;-0.60;99.90;;;;;;12384663;28;19926;-86
2022/12/11 21:12:39;;;;;;;;;;;-0.60;99.90;;;;;;12391167;28;19937;-86
2022/12/11 21:18:43;;;;;;;;;;;-0.60;99.90;;;;;;12360512;28;19934;-86
2022/12/11 21:24:44;;;;;;;;;;;-0.50;99.90;;;;;;12368224;28;19936;-86
2022/12/11 21:30:46;;;;;;;;;;;-0.70;99.90;;;;;;12374284;28;19936;-86
2022/12/11 21:36:48;;;;;;;;;;;-0.60;99.90;;;;;;12383809;28;19933;-86
2022/12/11 21:42:49;;;;;;;;;;;-0.70;99.90;;;;;;12374455;28;20286;-86
2022/12/11 21:48:51;;;;;;;;;;;-0.90;99.90;;;;;;12378055;28;19929;-86
2022/12/11 21:54:53;;;;;;;;;;;-0.90;99.90;;;;;;12379933;28;19925;-86
2022/12/11 22:00:56;;;;;;;;;;;-0.90;99.90;;;;;;12393483;28;22770;-86
2022/12/11 22:06:58;;;;;;;;;;;-1.00;99.90;;;;;;12373322;28;19926;-86
2022/12/11 22:13:00;;;;;;;;;;;-1.00;99.90;;;;;;12390051;28;19976;-86
2022/12/11 22:19:02;;;;;;;;;;;-1.00;99.90;;;;;;12374722;28;19934;-86
2022/12/11 22:25:06;;;;;;;;;;;-1.00;99.90;;;;;;12373420;28;19933;-86
2022/12/11 22:31:09;;;;;;;;;;;-1.10;99.90;;;;;;12381356;28;19926;-86
2022/12/11 22:37:11;;;;;;;;;;;-1.20;99.90;;;;;;12368112;28;19930;-86
2022/12/11 22:43:13;;;;;;;;;;;-1.20;99.90;;;;;;12364632;28;19934;-86
2022/12/11 22:49:14;;;;;;;;;;;-1.10;99.90;;;;;;12379583;28;19952;-86
2022/12/11 22:55:16;;;;;;;;;;;-1.10;99.90;;;;;;12367894;28;19959;-86
2022/12/11 23:01:20;;;;;;;;;;;-1.10;99.90;;;;;;12367671;28;19926;-86
2022/12/11 23:07:22;;;;;;;;;;;-1.20;99.90;;;;;;12368001;28;19975;-86
2022/12/11 23:13:24;;;;;;;;;;;-1.30;99.90;;;;;;12391889;28;19929;-86
2022/12/11 23:19:25;;;;;;;;;;;-1.30;99.90;;;;;;12375595;28;19930;-85
2022/12/11 23:25:27;;;;;;;;;;;-1.50;99.90;;;;;;12375141;28;19948;-86
2022/12/11 23:31:29;;;;;;;;;;;-1.60;99.90;;;;;;12370309;28;19929;-86
2022/12/11 23:37:31;;;;;;;;;;;-1.60;99.90;;;;;;12375465;28;20048;-85
2022/12/11 23:43:33;;;;;;;;;;;-1.60;99.90;;;;;;12363697;28;19929;-86
2022/12/11 23:49:35;;;;;;;;;;;-1.70;99.90;;;;;;12385044;28;19933;-86
2022/12/11 23:55:38;;;;;;;;;;;-1.80;99.90;;;;;;12390543;28;19933;-85
